createdAt,value
2022-09-07T00:00:54.538Z,64.8
2022-09-07T00:02:11.642Z,64.5
2022-09-07T00:03:28.746Z,64.5
2022-09-07T00:04:45.851Z,64.3
2022-09-07T00:06:02.955Z,64.5
2022-09-07T00:07:20.059Z,64.4
2022-09-07T00:08:37.163Z,64.4
2022-09-07T00:09:54.267Z,64.2
2022-09-07T00:11:11.371Z,64.1
2022-09-07T00:12:28.475Z,64.1
2022-09-07T00:13:45.580Z,64.1
2022-09-07T00:15:02.684Z,65.2
2022-09-07T00:16:18.804Z,65.2
2022-09-07T00:17:35.908Z,65.5
2022-09-07T00:18:53.012Z,65.9
2022-09-07T00:20:10.117Z,65.7
2022-09-07T00:21:27.221Z,65.4
2022-09-07T00:22:44.325Z,65.7
2022-09-07T00:24:01.429Z,66.1
2022-09-07T00:25:18.534Z,66.5
2022-09-07T00:26:35.638Z,66.7
2022-09-07T00:27:52.742Z,67.5
2022-09-07T00:29:09.846Z,68.3
2022-09-07T00:30:26.950Z,69
2022-09-07T00:31:44.054Z,70
2022-09-07T00:33:00.175Z,70.2
2022-09-07T00:34:17.279Z,70.8
2022-09-07T00:35:34.383Z,71.4
2022-09-07T00:36:51.488Z,72
2022-09-07T00:38:08.592Z,72.1
2022-09-07T00:39:25.696Z,72
2022-09-07T00:40:42.800Z,72.7
2022-09-07T00:41:59.904Z,73.4
2022-09-07T00:43:17.008Z,74.2
2022-09-07T00:44:34.113Z,74.3
2022-09-07T00:45:51.217Z,74.4
2022-09-07T00:47:08.321Z,74.5
2022-09-07T00:48:25.425Z,75.7
2022-09-07T00:49:41.546Z,75.4
2022-09-07T00:50:58.650Z,76
2022-09-07T00:52:15.754Z,76.8
2022-09-07T00:53:32.858Z,76.8
2022-09-07T00:54:49.962Z,77.1
2022-09-07T00:56:07.067Z,77.3
2022-09-07T00:57:24.169Z,78.1
2022-09-07T00:58:41.274Z,79
2022-09-07T00:59:58.378Z,79.3
2022-09-07T01:01:15.482Z,80.1
2022-09-07T01:02:32.586Z,80.6
2022-09-07T01:03:49.690Z,80.8
2022-09-07T01:05:06.794Z,81.5
2022-09-07T01:06:22.914Z,81.8
2022-09-07T01:07:40.018Z,82.3
2022-09-07T01:08:57.122Z,82.6
2022-09-07T01:10:14.226Z,82.9
2022-09-07T01:11:31.331Z,83.3
2022-09-07T01:12:48.434Z,83.7
2022-09-07T01:14:05.539Z,83.8
2022-09-07T01:15:22.643Z,83.9
2022-09-07T01:16:39.746Z,84
2022-09-07T01:17:56.850Z,83.7
2022-09-07T01:19:13.954Z,84
2022-09-07T01:20:31.058Z,83.9
2022-09-07T01:21:48.162Z,83.6
2022-09-07T01:23:04.282Z,83.6
2022-09-07T01:24:21.386Z,83.5
2022-09-07T01:25:38.490Z,83.7
2022-09-07T01:26:55.594Z,84.3
2022-09-07T01:28:12.698Z,84.4
2022-09-07T01:29:29.802Z,84.6
2022-09-07T01:30:46.906Z,84.4
2022-09-07T01:32:04.010Z,84.6
2022-09-07T01:33:21.114Z,84
2022-09-07T01:34:38.218Z,84.1
2022-09-07T01:35:55.321Z,85.5
2022-09-07T01:37:12.425Z,85.7
2022-09-07T01:38:29.529Z,85.5
2022-09-07T01:39:45.649Z,86.6
2022-09-07T01:41:02.753Z,87.3
2022-09-07T01:42:19.857Z,88
2022-09-07T01:43:36.961Z,89.2
2022-09-07T01:44:54.065Z,90
2022-09-07T01:46:11.169Z,90.5
2022-09-07T01:47:28.272Z,90.7
2022-09-07T01:48:45.376Z,90.8
2022-09-07T01:50:02.480Z,91.1
2022-09-07T01:51:19.585Z,91
2022-09-07T01:52:36.689Z,91
2022-09-07T01:53:53.794Z,90.9
2022-09-07T01:55:10.898Z,91
2022-09-07T01:56:27.018Z,91
2022-09-07T01:57:44.123Z,91
2022-09-07T01:59:01.227Z,91
2022-09-07T02:00:18.332Z,90.8
2022-09-07T02:01:35.436Z,90.7
2022-09-07T02:02:52.540Z,90.9
2022-09-07T02:04:09.645Z,90.5
2022-09-07T02:05:26.749Z,90.5
2022-09-07T02:06:43.854Z,90.4
2022-09-07T02:08:00.958Z,90.3
2022-09-07T02:09:18.062Z,89.9
2022-09-07T02:10:35.167Z,89.6
2022-09-07T02:11:52.271Z,89.5
2022-09-07T02:13:08.391Z,89.4
2022-09-07T02:14:25.496Z,89.2
2022-09-07T02:15:42.600Z,88.7
2022-09-07T02:16:59.705Z,88.7
2022-09-07T02:18:16.809Z,88.9
2022-09-07T02:19:33.912Z,89
2022-09-07T02:20:51.016Z,89
2022-09-07T02:22:08.120Z,89
2022-09-07T02:23:25.224Z,88.8
2022-09-07T02:24:42.328Z,88.8
2022-09-07T02:25:59.433Z,89.1
2022-09-07T02:27:16.537Z,89
2022-09-07T02:28:33.641Z,89.1
2022-09-07T02:29:49.759Z,88.8
2022-09-07T02:31:06.864Z,88.8
2022-09-07T02:32:23.968Z,88.9
2022-09-07T02:33:41.072Z,89.1
2022-09-07T02:34:58.177Z,88.8
2022-09-07T02:36:15.281Z,88.3
2022-09-07T02:37:31.402Z,88.4
2022-09-07T02:38:48.506Z,88.5
2022-09-07T02:40:05.611Z,88.7
2022-09-07T02:41:22.715Z,88.8
2022-09-07T02:42:39.820Z,88.9
2022-09-07T02:43:56.924Z,88.7
2022-09-07T02:45:14.028Z,89
2022-09-07T02:46:31.133Z,89.7
2022-09-07T02:47:48.237Z,90
2022-09-07T02:49:05.341Z,90
2022-09-07T02:50:22.446Z,90.3
2022-09-07T02:51:39.550Z,90
2022-09-07T02:52:56.655Z,90
2022-09-07T02:54:12.775Z,90.2
2022-09-07T02:55:29.879Z,90.2
2022-09-07T02:56:46.984Z,89.7
2022-09-07T02:58:04.088Z,89.5
2022-09-07T02:59:21.192Z,89.4
2022-09-07T03:00:38.296Z,89.5
2022-09-07T03:01:55.401Z,89
2022-09-07T03:03:12.505Z,88.9
2022-09-07T03:04:29.609Z,88.9
2022-09-07T03:05:46.713Z,89.3
2022-09-07T03:07:03.818Z,89.3
2022-09-07T03:08:20.923Z,89.3
2022-09-07T03:09:38.028Z,88.9
2022-09-07T03:10:54.148Z,89.5
2022-09-07T03:12:11.253Z,89
2022-09-07T03:13:28.357Z,89.1
2022-09-07T03:14:45.462Z,89
2022-09-07T03:16:02.566Z,89
2022-09-07T03:17:19.670Z,88.9
2022-09-07T03:18:36.774Z,88.7
2022-09-07T03:19:53.878Z,88.7
2022-09-07T03:21:10.983Z,88.7
2022-09-07T03:22:28.087Z,88.5
2022-09-07T03:23:45.192Z,88.6
2022-09-07T03:25:02.296Z,88.7
2022-09-07T03:26:19.400Z,88.5
2022-09-07T03:27:35.520Z,88.5
2022-09-07T03:28:52.625Z,88.4
2022-09-07T03:30:09.729Z,88.4
2022-09-07T03:31:26.834Z,88.3
2022-09-07T03:32:43.938Z,88.4
2022-09-07T03:34:01.042Z,88.3
2022-09-07T03:35:18.147Z,88.4
2022-09-07T03:36:35.252Z,88.3
2022-09-07T03:37:52.356Z,88.1
2022-09-07T03:39:09.460Z,88.1
2022-09-07T03:40:26.565Z,88.4
2022-09-07T03:41:43.669Z,88.4
2022-09-07T03:43:00.773Z,88.2
2022-09-07T03:44:16.894Z,88.6
2022-09-07T03:45:33.998Z,88.9
2022-09-07T03:46:51.103Z,88.8
2022-09-07T03:48:08.207Z,89.3
2022-09-07T03:49:25.312Z,89.5
2022-09-07T03:50:42.416Z,89.3
2022-09-07T03:51:59.520Z,89.3
2022-09-07T03:53:16.625Z,89.4
2022-09-07T03:54:33.729Z,89.4
2022-09-07T03:55:50.833Z,89.6
2022-09-07T03:57:07.938Z,89.9
2022-09-07T03:58:25.042Z,90
2022-09-07T03:59:42.146Z,90.2
2022-09-07T04:00:58.266Z,90.6
2022-09-07T04:02:15.370Z,90.9
2022-09-07T04:03:32.474Z,91
2022-09-07T04:04:49.578Z,91
2022-09-07T04:06:06.682Z,91
2022-09-07T04:07:23.786Z,91.1
2022-09-07T04:08:40.891Z,90.9
2022-09-07T04:09:57.995Z,91
2022-09-07T04:11:15.099Z,90.9
2022-09-07T04:12:32.203Z,90.8
2022-09-07T04:13:49.307Z,90.9
2022-09-07T04:15:06.411Z,91
2022-09-07T04:16:23.515Z,90.8
2022-09-07T04:17:39.635Z,90.8
2022-09-07T04:18:56.739Z,90.8
2022-09-07T04:20:13.843Z,91.2
2022-09-07T04:21:30.948Z,91.5
2022-09-07T04:22:48.052Z,91.7
2022-09-07T04:24:05.156Z,91.7
2022-09-07T04:25:22.260Z,92
2022-09-07T04:26:39.364Z,91.9
2022-09-07T04:27:56.468Z,92.3
2022-09-07T04:29:13.572Z,92
2022-09-07T04:30:30.676Z,91.8
2022-09-07T04:31:47.780Z,91.5
2022-09-07T04:33:04.884Z,91.3
2022-09-07T04:34:21.005Z,90.9
2022-09-07T04:35:38.108Z,90.6
2022-09-07T04:36:55.212Z,90.6
2022-09-07T04:38:12.316Z,90.5
2022-09-07T04:39:29.420Z,90.1
2022-09-07T04:40:46.524Z,90.4
2022-09-07T04:42:03.629Z,90.4
2022-09-07T04:43:20.733Z,90.3
2022-09-07T04:44:37.837Z,90
2022-09-07T04:45:54.941Z,90.1
2022-09-07T04:47:12.045Z,90.1
2022-09-07T04:48:29.149Z,90.2
2022-09-07T04:49:46.253Z,90.1
2022-09-07T04:51:02.374Z,90.3
2022-09-07T04:52:19.478Z,90.1
2022-09-07T04:53:36.582Z,89.6
2022-09-07T04:54:53.686Z,89.3
2022-09-07T04:56:10.790Z,89.1
2022-09-07T04:57:27.894Z,89.4
2022-09-07T04:58:44.998Z,89.8
2022-09-07T05:00:02.102Z,90.1
2022-09-07T05:01:19.206Z,90.3
2022-09-07T05:02:36.310Z,90.4
2022-09-07T05:03:53.414Z,90.4
2022-09-07T05:05:10.519Z,90.5
2022-09-07T05:06:27.623Z,90.1
2022-09-07T05:07:43.743Z,89.8
2022-09-07T05:09:00.847Z,89.9
2022-09-07T05:10:17.951Z,89.9
2022-09-07T05:11:35.055Z,89.6
2022-09-07T05:12:52.159Z,89.1
2022-09-07T05:14:09.263Z,88.8
2022-09-07T05:15:26.367Z,88.7
2022-09-07T05:16:43.471Z,88.5
2022-09-07T05:18:00.575Z,88.3
2022-09-07T05:19:17.679Z,88.6
2022-09-07T05:20:34.784Z,88.5
2022-09-07T05:21:51.889Z,88.4
2022-09-07T05:23:08.993Z,88.5
2022-09-07T05:24:25.113Z,88.5
2022-09-07T05:25:42.217Z,88.4
2022-09-07T05:26:59.321Z,88.1
2022-09-07T05:28:16.425Z,88
2022-09-07T05:29:33.529Z,87.5
2022-09-07T05:30:50.634Z,87.1
2022-09-07T05:32:07.738Z,86.6
2022-09-07T05:33:24.842Z,86.3
2022-09-07T05:34:41.946Z,86
2022-09-07T05:35:59.051Z,85.8
2022-09-07T05:37:16.155Z,85.6
2022-09-07T05:38:33.260Z,85.4
2022-09-07T05:39:50.364Z,85.5
2022-09-07T05:41:06.485Z,85.1
2022-09-07T05:42:23.589Z,84.1
2022-09-07T05:43:40.693Z,83.9
2022-09-07T05:44:57.798Z,83.4
2022-09-07T05:46:14.902Z,83
2022-09-07T05:47:32.007Z,82.2
2022-09-07T05:48:49.111Z,82.2
2022-09-07T05:50:06.215Z,81.8
2022-09-07T05:51:23.319Z,81
2022-09-07T05:52:40.421Z,80.8
2022-09-07T05:53:57.525Z,80.6
2022-09-07T05:55:14.629Z,79.3
2022-09-07T05:56:31.732Z,77.5
2022-09-07T05:57:47.853Z,76.6
2022-09-07T05:59:04.956Z,76.8
2022-09-07T06:00:22.061Z,77.1
2022-09-07T06:01:39.165Z,77.2
2022-09-07T06:02:56.269Z,76.8
2022-09-07T06:04:13.372Z,76.5
2022-09-07T06:05:30.476Z,75.8
2022-09-07T06:06:47.580Z,75.2
2022-09-07T06:08:04.685Z,74.5
2022-09-07T06:09:21.789Z,73.8
2022-09-07T06:10:38.893Z,73
2022-09-07T06:11:55.997Z,71.9
2022-09-07T06:13:13.101Z,70.8
2022-09-07T06:14:29.222Z,69.9
2022-09-07T06:15:46.325Z,69.5
2022-09-07T06:17:03.429Z,67
2022-09-07T06:18:20.533Z,65
2022-09-07T06:19:37.637Z,62.5
2022-09-07T06:20:54.741Z,61.9
2022-09-07T06:22:11.846Z,62.4
2022-09-07T06:23:28.950Z,61
2022-09-07T06:24:46.054Z,59.7
2022-09-07T06:26:03.158Z,58.6
2022-09-07T06:27:20.262Z,56.6
2022-09-07T06:28:37.366Z,55.5
2022-09-07T06:29:54.470Z,55.3
2022-09-07T06:31:10.590Z,54.7
2022-09-07T06:32:27.694Z,54.9
2022-09-07T06:33:44.799Z,52.3
2022-09-07T06:35:01.903Z,51.9
2022-09-07T06:36:19.007Z,50.6
2022-09-07T06:37:36.111Z,49.5
2022-09-07T06:38:53.215Z,48.7
2022-09-07T06:40:10.319Z,48.5
2022-09-07T06:41:27.424Z,48.4
2022-09-07T06:42:44.528Z,47.5
2022-09-07T06:44:01.633Z,48.4
2022-09-07T06:45:18.737Z,47
2022-09-07T06:46:35.841Z,47.4
2022-09-07T06:47:51.961Z,46.6
2022-09-07T06:49:09.065Z,47.4
2022-09-07T06:50:26.170Z,47.4
2022-09-07T06:51:43.274Z,46.6
2022-09-07T06:53:00.379Z,45.9
2022-09-07T06:54:17.483Z,45.6
2022-09-07T06:55:33.604Z,45.5
2022-09-07T06:56:50.709Z,45.3
2022-09-07T06:58:07.813Z,44.9
2022-09-07T06:59:24.918Z,44.7
2022-09-07T07:00:42.022Z,44.1
2022-09-07T07:01:59.126Z,43.5
2022-09-07T07:03:16.231Z,43.1
2022-09-07T07:04:33.335Z,43.6
2022-09-07T07:05:50.440Z,44.1
2022-09-07T07:07:07.545Z,44.4
2022-09-07T07:08:24.649Z,44.1
2022-09-07T07:09:41.754Z,44.1
2022-09-07T07:10:58.859Z,43.5
2022-09-07T07:13:32.084Z,43.6
2022-09-07T07:14:49.189Z,43.1
2022-09-07T07:16:06.293Z,42.9
2022-09-07T07:17:23.398Z,42.1
2022-09-07T07:18:40.503Z,42.4
2022-09-07T07:19:57.608Z,42.1
2022-09-07T07:21:14.712Z,41.7
2022-09-07T07:22:31.817Z,41.2
2022-09-07T07:23:48.921Z,41.2
2022-09-07T07:25:06.026Z,41.1
2022-09-07T07:26:23.131Z,41
2022-09-07T07:27:40.235Z,41.2
2022-09-07T07:28:56.356Z,40.7
2022-09-07T07:30:13.461Z,40.6
2022-09-07T07:31:30.566Z,41.2
2022-09-07T07:32:47.671Z,41.3
2022-09-07T07:34:04.775Z,41.2
2022-09-07T07:35:21.880Z,41.9
2022-09-07T07:36:38.985Z,42.2
2022-09-07T07:37:56.090Z,41.9
2022-09-07T07:39:13.194Z,41.6
2022-09-07T07:40:30.300Z,41.3
2022-09-07T07:41:47.406Z,41.3
2022-09-07T07:43:04.510Z,41.7
2022-09-07T07:44:21.615Z,41.7
2022-09-07T07:45:37.736Z,42.1
2022-09-07T07:46:54.841Z,42.5
2022-09-07T07:48:11.946Z,42.6
2022-09-07T07:49:29.050Z,41.9
2022-09-07T07:50:46.155Z,41.9
2022-09-07T07:52:03.260Z,42.2
2022-09-07T07:53:20.365Z,42.1
2022-09-07T07:54:37.470Z,42
2022-09-07T07:55:54.575Z,42
2022-09-07T07:57:11.679Z,41.6
2022-09-07T07:58:28.782Z,41.8
2022-09-07T07:59:45.887Z,42.2
2022-09-07T08:01:02.992Z,42.7
2022-09-07T08:02:19.113Z,42.9
2022-09-07T08:03:36.218Z,42.9
2022-09-07T08:04:53.323Z,42.8
2022-09-07T08:06:10.428Z,43.2
2022-09-07T08:07:27.534Z,42.6
2022-09-07T08:08:44.639Z,42.7
2022-09-07T08:10:01.743Z,42
2022-09-07T08:11:18.848Z,42.5
2022-09-07T08:12:35.953Z,42.4
2022-09-07T08:13:53.058Z,42.5
2022-09-07T08:15:10.163Z,43.6
2022-09-07T08:16:27.268Z,44.3
2022-09-07T08:17:44.373Z,44.1
2022-09-07T08:19:00.494Z,43.6
2022-09-07T08:20:17.599Z,44
2022-09-07T08:21:34.703Z,43.9
2022-09-07T08:22:51.808Z,43.5
2022-09-07T08:24:08.913Z,42.8
2022-09-07T08:25:26.018Z,43.1
2022-09-07T08:26:43.123Z,43
2022-09-07T08:28:00.227Z,42.5
2022-09-07T08:29:17.332Z,42.5
2022-09-07T08:30:34.437Z,43
2022-09-07T08:31:51.542Z,43
2022-09-07T08:33:08.647Z,43.4
2022-09-07T08:34:25.752Z,44.1
2022-09-07T08:35:41.873Z,43.7
2022-09-07T08:36:58.978Z,43.5
2022-09-07T08:38:16.085Z,43.9
2022-09-07T08:39:33.190Z,43.4
2022-09-07T08:40:50.294Z,43
2022-09-07T08:42:07.399Z,43.1
2022-09-07T08:43:24.505Z,43.2
2022-09-07T08:44:41.609Z,43
2022-09-07T08:45:58.714Z,43.3
2022-09-07T08:47:15.820Z,43.3
2022-09-07T08:48:32.924Z,43
2022-09-07T08:49:50.029Z,43
2022-09-07T08:51:07.134Z,43
2022-09-07T08:52:23.255Z,42.7
2022-09-07T08:53:40.360Z,42.8
2022-09-07T08:54:57.466Z,42.5
2022-09-07T08:56:14.571Z,42.6
2022-09-07T08:57:31.676Z,43
2022-09-07T08:58:48.781Z,42.8
2022-09-07T09:00:05.886Z,42.7
2022-09-07T09:01:22.991Z,42.9
2022-09-07T09:02:40.096Z,42.9
2022-09-07T09:03:57.201Z,42.5
2022-09-07T09:05:14.306Z,42.7
2022-09-07T09:06:31.411Z,43.1
2022-09-07T09:07:48.516Z,43.1
2022-09-07T09:09:04.637Z,43.2
2022-09-07T09:10:21.742Z,43.3
2022-09-07T09:11:38.847Z,42.8
2022-09-07T09:12:55.952Z,42.7
2022-09-07T09:14:13.057Z,42.6
2022-09-07T09:15:30.162Z,42.6
2022-09-07T09:16:47.267Z,42.7
2022-09-07T09:18:04.372Z,42.5
2022-09-07T09:19:21.477Z,42.8
2022-09-07T09:20:38.583Z,42.7
2022-09-07T09:21:55.688Z,43
2022-09-07T09:23:12.793Z,42.9
2022-09-07T09:24:29.898Z,43.7
2022-09-07T09:25:46.019Z,43.5
2022-09-07T09:27:03.124Z,44.1
2022-09-07T09:28:20.229Z,43.6
2022-09-07T09:29:37.334Z,44.2
2022-09-07T09:30:54.438Z,44.1
2022-09-07T09:32:11.544Z,44
2022-09-07T09:33:28.650Z,43.8
2022-09-07T09:34:45.754Z,44.1
2022-09-07T09:36:02.859Z,44.6
2022-09-07T09:37:19.964Z,44.6
2022-09-07T09:38:37.069Z,44.9
2022-09-07T09:39:54.174Z,45.2
2022-09-07T09:41:11.279Z,45.7
2022-09-07T09:42:27.399Z,46
2022-09-07T09:43:44.504Z,45.6
2022-09-07T09:45:01.609Z,45
2022-09-07T09:46:18.714Z,45
2022-09-07T09:47:35.818Z,46
2022-09-07T09:48:52.923Z,46
2022-09-07T09:50:10.027Z,45.8
2022-09-07T09:51:27.132Z,46.2
2022-09-07T09:52:44.237Z,47.1
2022-09-07T09:54:01.342Z,47.9
2022-09-07T09:55:18.446Z,48
2022-09-07T09:56:35.551Z,48.3
2022-09-07T09:57:52.655Z,48.4
2022-09-07T09:59:08.776Z,48.2
2022-09-07T10:00:25.880Z,48.6
2022-09-07T10:01:42.985Z,48.8
2022-09-07T10:03:00.089Z,48.6
2022-09-07T10:04:17.193Z,48.1
2022-09-07T10:05:34.298Z,48
2022-09-07T10:06:51.402Z,48
2022-09-07T10:08:08.507Z,47.8
2022-09-07T10:09:25.611Z,47.3
2022-09-07T10:10:42.715Z,47.7
2022-09-07T10:11:59.820Z,47.9
2022-09-07T10:13:16.924Z,48
2022-09-07T10:14:34.028Z,48.2
2022-09-07T10:15:50.149Z,48.1
2022-09-07T10:17:07.254Z,48.4
2022-09-07T10:18:24.358Z,48.7
2022-09-07T10:19:41.462Z,48.9
2022-09-07T10:20:58.567Z,48.7
2022-09-07T10:22:15.671Z,47.9
2022-09-07T10:23:32.775Z,47.5
2022-09-07T10:24:49.880Z,47.8
2022-09-07T10:26:06.984Z,47.9
2022-09-07T10:27:24.089Z,46.4
2022-09-07T10:28:41.193Z,46.3
2022-09-07T10:29:58.297Z,47
2022-09-07T10:31:15.402Z,47.3
2022-09-07T10:32:31.522Z,47.7
2022-09-07T10:33:48.627Z,47.6
2022-09-07T10:35:05.731Z,48.1
2022-09-07T10:36:22.835Z,47.3
2022-09-07T10:37:39.940Z,47.9
2022-09-07T10:38:57.044Z,47.8
2022-09-07T10:40:14.149Z,47.5
2022-09-07T10:41:31.253Z,47.6
2022-09-07T10:42:48.358Z,47.7
2022-09-07T10:44:05.462Z,47.5
2022-09-07T10:45:22.567Z,47.6
2022-09-07T10:46:39.671Z,47.6
2022-09-07T10:47:56.776Z,47.4
2022-09-07T10:49:12.896Z,47
2022-09-07T10:50:30.001Z,47.6
2022-09-07T10:51:47.105Z,48.4
2022-09-07T10:53:04.210Z,49.2
2022-09-07T10:54:21.314Z,49.5
2022-09-07T10:55:38.418Z,49.6
2022-09-07T10:56:55.523Z,49.9
2022-09-07T10:58:12.627Z,50.1
2022-09-07T10:59:29.730Z,50.3
2022-09-07T11:00:46.835Z,50.3
2022-09-07T11:02:03.939Z,50.7
2022-09-07T11:03:21.042Z,50.7
2022-09-07T11:04:38.146Z,50.2
2022-09-07T11:05:54.267Z,50.5
2022-09-07T11:07:11.371Z,50.5
2022-09-07T11:08:28.475Z,50.1
2022-09-07T11:09:45.579Z,50.3
2022-09-07T11:11:02.684Z,50.3
2022-09-07T11:12:19.788Z,50.6
2022-09-07T11:13:35.908Z,50.9
2022-09-07T11:14:53.012Z,50.9
2022-09-07T11:16:10.117Z,51
2022-09-07T11:17:27.222Z,51
2022-09-07T11:18:44.326Z,51.2
2022-09-07T11:20:01.431Z,51.7
2022-09-07T11:21:18.536Z,51.7
2022-09-07T11:22:35.640Z,51.9
2022-09-07T11:23:52.745Z,51.9
2022-09-07T11:25:09.850Z,52.1
2022-09-07T11:26:26.954Z,52.3
2022-09-07T11:27:44.059Z,51.6
2022-09-07T11:29:01.163Z,51.7
2022-09-07T11:30:17.284Z,52.1
2022-09-07T11:31:34.389Z,52.6
2022-09-07T11:32:51.493Z,52.3
2022-09-07T11:34:08.597Z,52.5
2022-09-07T11:35:25.702Z,52.3
2022-09-07T11:36:42.806Z,52.3
2022-09-07T11:37:59.910Z,52.4
2022-09-07T11:39:17.015Z,52.6
2022-09-07T11:40:34.119Z,52.6
2022-09-07T11:41:51.223Z,52.3
2022-09-07T11:43:08.327Z,52.5
2022-09-07T11:44:25.432Z,52.5
2022-09-07T11:45:42.536Z,52.6
2022-09-07T11:46:58.656Z,52.6
2022-09-07T11:48:15.761Z,52.8
2022-09-07T11:49:32.865Z,52.8
2022-09-07T11:50:49.969Z,52.5
2022-09-07T11:52:07.073Z,52.6
2022-09-07T11:53:24.177Z,52.7
2022-09-07T11:54:41.281Z,52.7
2022-09-07T11:55:58.385Z,52.6
2022-09-07T11:57:15.490Z,52.7
2022-09-07T11:58:32.594Z,52.3
2022-09-07T11:59:49.698Z,52
2022-09-07T12:01:06.802Z,51.8
2022-09-07T12:02:23.906Z,51.7
2022-09-07T12:03:40.026Z,51.6
2022-09-07T12:04:57.131Z,52
2022-09-07T12:06:14.235Z,52
2022-09-07T12:07:31.339Z,52
2022-09-07T12:08:48.444Z,52.1
2022-09-07T12:10:05.548Z,52.2
2022-09-07T12:11:22.653Z,52
2022-09-07T12:12:39.757Z,52.1
2022-09-07T12:13:56.861Z,52
2022-09-07T12:15:13.965Z,51.8
2022-09-07T12:16:31.069Z,51.7
2022-09-07T12:17:48.173Z,51.7
2022-09-07T12:19:05.277Z,51.5
2022-09-07T12:20:21.398Z,51.4
2022-09-07T12:21:38.502Z,51.2
2022-09-07T12:22:55.606Z,50.9
2022-09-07T12:24:12.710Z,51
2022-09-07T12:25:29.814Z,51
2022-09-07T12:26:46.918Z,51.1
2022-09-07T12:28:04.022Z,51.3
2022-09-07T12:29:21.126Z,51
2022-09-07T12:30:38.231Z,51.2
2022-09-07T12:31:55.335Z,51.1
2022-09-07T12:33:12.439Z,51
2022-09-07T12:34:29.543Z,50.5
2022-09-07T12:35:46.647Z,50.9
2022-09-07T12:37:02.768Z,51.1
2022-09-07T12:38:19.872Z,51
2022-09-07T12:39:36.976Z,50.5
2022-09-07T12:40:54.080Z,50.4
2022-09-07T12:42:11.184Z,50.2
2022-09-07T12:43:28.288Z,50
2022-09-07T12:44:45.393Z,49.8
2022-09-07T12:46:02.497Z,50.5
2022-09-07T12:47:19.601Z,49.9
2022-09-07T12:48:36.705Z,49.6
2022-09-07T12:49:53.809Z,49.7
2022-09-07T12:51:10.913Z,50
2022-09-07T12:52:28.018Z,50.1
2022-09-07T12:53:44.138Z,50.2
2022-09-07T12:55:01.242Z,50.4
2022-09-07T12:56:18.346Z,50.5
2022-09-07T12:57:35.451Z,50.6
2022-09-07T12:58:52.555Z,50.6
2022-09-07T13:00:09.659Z,50.8
2022-09-07T13:01:26.763Z,50.4
2022-09-07T13:02:43.867Z,50.3
2022-09-07T13:04:00.972Z,50.1
2022-09-07T13:05:18.076Z,50.7
2022-09-07T13:06:35.180Z,50.4
2022-09-07T13:07:52.284Z,50.1
2022-09-07T13:09:09.388Z,50
2022-09-07T13:10:25.508Z,49.8
2022-09-07T13:11:42.613Z,48.7
2022-09-07T13:12:59.717Z,48.1
2022-09-07T13:14:16.821Z,48.9
2022-09-07T13:15:33.927Z,49.5
2022-09-07T13:16:51.031Z,49.7
2022-09-07T13:18:08.135Z,49.4
2022-09-07T13:19:25.239Z,49.3
2022-09-07T13:20:42.344Z,49.1
2022-09-07T13:21:59.449Z,49.2
2022-09-07T13:23:16.554Z,49.4
2022-09-07T13:24:33.658Z,49
2022-09-07T13:25:50.763Z,48.9
2022-09-07T13:27:06.883Z,49
2022-09-07T13:28:23.987Z,49.3
2022-09-07T13:29:41.091Z,49.2
2022-09-07T13:30:58.196Z,48.8
2022-09-07T13:32:15.300Z,49
2022-09-07T13:33:32.404Z,49
2022-09-07T13:34:49.508Z,48.8
2022-09-07T13:36:06.612Z,49.1
2022-09-07T13:37:23.717Z,49.2
2022-09-07T13:38:40.821Z,49.2
2022-09-07T13:39:57.926Z,49.3
2022-09-07T13:41:15.030Z,49.2
2022-09-07T13:42:32.135Z,49.1
2022-09-07T13:43:48.255Z,49.4
2022-09-07T13:45:05.360Z,49.6
2022-09-07T13:46:22.464Z,50
2022-09-07T13:47:39.569Z,49.5
2022-09-07T13:48:56.673Z,49
2022-09-07T13:50:13.778Z,49.2
2022-09-07T13:51:30.882Z,49.1
2022-09-07T13:52:47.986Z,49.5
2022-09-07T13:54:05.090Z,49.6
2022-09-07T13:55:22.194Z,49.5
2022-09-07T13:56:39.298Z,49.4
2022-09-07T13:57:56.403Z,49.6
2022-09-07T13:59:13.507Z,49.4
2022-09-07T14:00:29.627Z,49.7
2022-09-07T14:01:46.733Z,49.4
2022-09-07T14:03:03.837Z,49.6
2022-09-07T14:04:20.941Z,49.8
2022-09-07T14:05:38.045Z,50
2022-09-07T14:06:55.149Z,49.9
2022-09-07T14:08:12.253Z,49.9
2022-09-07T14:09:29.357Z,49.2
2022-09-07T14:10:46.462Z,49.7
2022-09-07T14:12:03.566Z,49.8
2022-09-07T14:13:20.670Z,49.3
2022-09-07T14:14:37.774Z,49.5
2022-09-07T14:15:54.878Z,49.8
2022-09-07T14:17:10.999Z,49.8
2022-09-07T14:18:28.103Z,49.7
2022-09-07T14:19:45.207Z,49.8
2022-09-07T14:21:02.311Z,49.9
2022-09-07T14:22:19.415Z,49.6
2022-09-07T14:23:36.520Z,49.5
2022-09-07T14:24:53.624Z,49.5
2022-09-07T14:26:10.728Z,49.2
2022-09-07T14:27:27.832Z,49.3
2022-09-07T14:28:44.936Z,49.2
2022-09-07T14:30:02.040Z,49.2
2022-09-07T14:31:19.144Z,49.1
2022-09-07T14:32:36.249Z,49
2022-09-07T14:33:52.369Z,48.5
2022-09-07T14:35:09.473Z,49.2
2022-09-07T14:36:26.577Z,49.1
2022-09-07T14:37:43.681Z,48.7
2022-09-07T14:39:00.785Z,48.9
2022-09-07T14:40:17.889Z,48.5
2022-09-07T14:41:34.993Z,48.4
2022-09-07T14:42:52.098Z,48.3
2022-09-07T14:44:09.202Z,48.5
2022-09-07T14:45:26.306Z,48.5
2022-09-07T14:46:43.410Z,48.6
2022-09-07T14:48:00.514Z,48.9
2022-09-07T14:49:17.618Z,48.6
2022-09-07T14:50:33.739Z,48.6
2022-09-07T14:51:50.843Z,48.6
2022-09-07T14:53:07.947Z,48.8
2022-09-07T14:54:25.051Z,49
2022-09-07T14:55:42.155Z,49.1
2022-09-07T14:56:59.260Z,49.1
2022-09-07T14:58:16.363Z,49
2022-09-07T14:59:33.467Z,48.5
2022-09-07T15:00:50.571Z,48.5
2022-09-07T15:02:07.675Z,48.6
2022-09-07T15:03:24.779Z,48.9
2022-09-07T15:04:41.883Z,48.6
2022-09-07T15:05:58.987Z,48.8
2022-09-07T15:07:15.108Z,48.7
2022-09-07T15:08:32.212Z,48.9
2022-09-07T15:09:49.316Z,49
2022-09-07T15:11:06.420Z,48.8
2022-09-07T15:12:23.524Z,48.6
2022-09-07T15:13:40.628Z,48.7
2022-09-07T15:14:57.732Z,48.9
2022-09-07T15:16:14.836Z,48.9
2022-09-07T15:17:31.941Z,49
2022-09-07T15:18:49.045Z,48.5
2022-09-07T15:21:23.254Z,48.5
2022-09-07T15:22:40.358Z,48.5
2022-09-07T15:23:56.478Z,49.1
2022-09-07T15:25:13.582Z,49.3
2022-09-07T15:26:30.686Z,49.3
2022-09-07T15:27:47.790Z,49.8
2022-09-07T15:29:04.895Z,49.4
2022-09-07T15:30:21.999Z,49.4
2022-09-07T15:31:38.119Z,49.4
2022-09-07T15:32:55.223Z,49.4
2022-09-07T15:34:12.327Z,49.3
2022-09-07T15:35:29.431Z,49
2022-09-07T15:36:46.535Z,49.1
2022-09-07T15:38:03.639Z,49.5
2022-09-07T15:39:20.743Z,49.4
2022-09-07T15:40:37.848Z,49.4
2022-09-07T15:41:54.952Z,49.3
2022-09-07T15:43:12.056Z,49.1
2022-09-07T15:44:29.160Z,49.2
2022-09-07T15:45:46.264Z,49.3
2022-09-07T15:47:03.368Z,49.4
2022-09-07T15:48:19.488Z,49.7
2022-09-07T15:49:36.592Z,49.4
2022-09-07T15:50:53.696Z,49.5
2022-09-07T15:52:10.801Z,49.3
2022-09-07T15:53:27.905Z,49.4
2022-09-07T15:54:45.009Z,49.2
2022-09-07T15:56:02.113Z,49.2
2022-09-07T15:57:19.217Z,49.5
2022-09-07T15:58:36.321Z,49.1
2022-09-07T15:59:53.425Z,49
2022-09-07T16:01:10.529Z,49
2022-09-07T16:02:27.634Z,48.5
2022-09-07T16:03:44.738Z,48.4
2022-09-07T16:05:00.858Z,48.2
2022-09-07T16:06:17.963Z,48.6
2022-09-07T16:07:35.067Z,48.8
2022-09-07T16:08:52.171Z,48.9
2022-09-07T16:10:09.275Z,49.1
2022-09-07T16:11:26.379Z,49.4
2022-09-07T16:12:43.484Z,49.6
2022-09-07T16:14:00.588Z,49.9
2022-09-07T16:15:17.692Z,50
2022-09-07T16:16:34.796Z,49.7
2022-09-07T16:17:51.900Z,49.6
2022-09-07T16:19:09.004Z,49.5
2022-09-07T16:20:26.106Z,49.6
2022-09-07T16:21:42.227Z,49.4
2022-09-07T16:22:59.331Z,48.9
2022-09-07T16:24:16.435Z,49.1
2022-09-07T16:25:33.540Z,49.1
2022-09-07T16:26:50.644Z,49.3
2022-09-07T16:28:07.748Z,49.4
2022-09-07T16:29:24.853Z,49.5
2022-09-07T16:30:41.957Z,49.6
2022-09-07T16:31:59.061Z,49.7
2022-09-07T16:33:16.165Z,49.7
2022-09-07T16:34:33.269Z,50
2022-09-07T16:35:50.374Z,50.1
2022-09-07T16:37:07.478Z,50.4
2022-09-07T16:38:23.598Z,50.6
2022-09-07T16:39:40.702Z,50.6
2022-09-07T16:40:57.807Z,50.6
2022-09-07T16:42:14.911Z,51
2022-09-07T16:43:32.016Z,51.3
2022-09-07T16:44:49.120Z,51.1
2022-09-07T16:46:06.224Z,51.6
2022-09-07T16:47:23.328Z,51.8
2022-09-07T16:48:40.432Z,52
2022-09-07T16:49:57.536Z,51.8
2022-09-07T16:51:14.640Z,51.7
2022-09-07T16:52:31.744Z,52.3
2022-09-07T16:53:48.848Z,52.4
2022-09-07T16:55:04.968Z,52.5
2022-09-07T16:56:22.072Z,52.2
2022-09-07T16:57:39.175Z,52.5
2022-09-07T16:58:56.280Z,52.6
2022-09-07T17:00:13.383Z,52.6
2022-09-07T17:01:30.487Z,52.9
2022-09-07T17:02:47.591Z,52.8
2022-09-07T17:04:04.695Z,53
2022-09-07T17:05:21.799Z,53.2
2022-09-07T17:06:38.903Z,53.1
2022-09-07T17:07:56.007Z,53
2022-09-07T17:09:13.111Z,52.8
2022-09-07T17:10:30.215Z,52.9
2022-09-07T17:11:46.335Z,52.9
2022-09-07T17:13:03.440Z,53.1
2022-09-07T17:14:20.544Z,53.1
2022-09-07T17:15:37.648Z,53.2
2022-09-07T17:16:54.752Z,53.2